createdAt,value
2024-03-15T00:00:15.719Z,99301.16
2024-03-15T00:02:43.562Z,99299.06
2024-03-15T00:05:10.407Z,99302.75
2024-03-15T00:07:36.806Z,99301.47
2024-03-15T00:10:03.312Z,99307.81
2024-03-15T00:12:29.794Z,99302.28
2024-03-15T00:14:56.597Z,99295.84
2024-03-15T00:17:23.313Z,99301.88
2024-03-15T00:19:49.856Z,99302.47
2024-03-15T00:22:16.369Z,99300.56
2024-03-15T00:24:43.170Z,99293.09
2024-03-15T00:27:09.799Z,99299.72
2024-03-15T00:29:38.190Z,99294.81
2024-03-15T00:32:07.111Z,99295.19
2024-03-15T00:34:36.495Z,99286.28
2024-03-15T00:37:03.477Z,99285.47
2024-03-15T00:39:30.105Z,99281.22
2024-03-15T00:41:57.179Z,99284.13
2024-03-15T00:44:23.838Z,99278.00
2024-03-15T00:46:51.118Z,99276.28
2024-03-15T00:49:17.677Z,99277.25
2024-03-15T00:51:44.265Z,99274.03
2024-03-15T00:54:10.795Z,99272.78
2024-03-15T00:56:37.871Z,99271.66
2024-03-15T00:59:04.277Z,99270.13
2024-03-15T01:01:30.883Z,99272.03
2024-03-15T01:03:57.384Z,99268.44
2024-03-15T01:06:24.825Z,99259.25
2024-03-15T01:08:52.657Z,99261.25
2024-03-15T01:11:19.233Z,99265.78
2024-03-15T01:13:45.853Z,99260.69
2024-03-15T01:16:12.611Z,99252.09
2024-03-15T01:18:40.081Z,99252.84
2024-03-15T01:21:06.516Z,99242.13
2024-03-15T01:23:33.391Z,99244.16
2024-03-15T01:25:59.735Z,99243.66
2024-03-15T01:28:26.415Z,99234.97
2024-03-15T01:30:52.954Z,99234.13
2024-03-15T01:33:19.592Z,99232.88
2024-03-15T01:35:46.137Z,99231.94
2024-03-15T01:38:12.624Z,99231.75
2024-03-15T01:40:39.095Z,99237.81
2024-03-15T01:43:05.644Z,99239.69
2024-03-15T01:45:33.172Z,99229.50
2024-03-15T01:48:00.228Z,99235.72
2024-03-15T01:50:27.876Z,99235.44
2024-03-15T01:52:56.081Z,99242.16
2024-03-15T01:55:24.095Z,99236.69
2024-03-15T01:57:50.681Z,99235.81
2024-03-15T02:00:18.029Z,99232.31
2024-03-15T02:02:45.156Z,99230.72
2024-03-15T02:05:21.233Z,99225.53
2024-03-15T02:07:47.858Z,99225.72
2024-03-15T02:10:15.292Z,99220.13
2024-03-15T02:12:41.944Z,99219.09
2024-03-15T02:15:08.896Z,99221.38
2024-03-15T02:17:38.516Z,99218.50
2024-03-15T02:20:07.598Z,99222.28
2024-03-15T02:22:34.346Z,99222.41
2024-03-15T02:25:01.030Z,99223.59
2024-03-15T02:27:29.901Z,99223.06
2024-03-15T02:29:56.771Z,99223.44
2024-03-15T02:32:25.984Z,99213.97
2024-03-15T02:34:53.055Z,99213.78
2024-03-15T02:37:19.630Z,99220.81
2024-03-15T02:39:47.354Z,99212.28
2024-03-15T02:42:14.092Z,99218.22
2024-03-15T02:44:40.687Z,99208.91
2024-03-15T02:47:07.714Z,99207.88
2024-03-15T02:49:34.087Z,99208.34
2024-03-15T02:52:00.413Z,99209.44
2024-03-15T02:54:28.036Z,99208.53
2024-03-15T02:56:54.433Z,99214.09
2024-03-15T02:59:21.091Z,99209.84
2024-03-15T03:01:47.667Z,99212.31
2024-03-15T03:04:14.530Z,99212.09
2024-03-15T03:06:42.681Z,99212.88
2024-03-15T03:09:10.777Z,99211.72
2024-03-15T03:11:38.150Z,99209.84
2024-03-15T03:14:06.043Z,99202.56
2024-03-15T03:16:35.260Z,99205.56
2024-03-15T03:19:02.237Z,99211.13
2024-03-15T03:21:28.702Z,99205.09
2024-03-15T03:23:58.189Z,99203.28
2024-03-15T03:26:27.551Z,99197.13
2024-03-15T03:28:54.684Z,99206.03
2024-03-15T03:31:21.041Z,99200.75
2024-03-15T03:33:47.471Z,99208.41
2024-03-15T03:36:14.058Z,99212.84
2024-03-15T03:38:43.450Z,99208.66
2024-03-15T03:41:10.307Z,99214.88
2024-03-15T03:43:38.407Z,99211.38
2024-03-15T03:46:08.187Z,99209.59
2024-03-15T03:48:34.853Z,99204.00
2024-03-15T03:51:05.567Z,99208.25
2024-03-15T03:53:32.046Z,99203.50
2024-03-15T03:55:58.488Z,99200.13
2024-03-15T03:58:25.212Z,99204.66
2024-03-15T04:00:52.034Z,99205.53
2024-03-15T04:03:18.718Z,99207.31
2024-03-15T04:05:45.219Z,99207.63
2024-03-15T04:08:14.586Z,99213.00
2024-03-15T04:10:41.007Z,99207.91
2024-03-15T04:13:08.179Z,99202.63
2024-03-15T04:15:34.968Z,99211.19
2024-03-15T04:18:03.798Z,99212.06
2024-03-15T04:20:31.134Z,99205.03
2024-03-15T04:22:58.189Z,99211.09
2024-03-15T04:25:25.227Z,99208.06
2024-03-15T04:27:54.700Z,99201.91
2024-03-15T04:30:23.726Z,99188.03
2024-03-15T04:32:57.292Z,99185.16
2024-03-15T04:35:24.365Z,99187.50
2024-03-15T04:37:51.044Z,99187.19
2024-03-15T04:40:17.594Z,99192.78
2024-03-15T04:42:44.238Z,99200.16
2024-03-15T04:45:11.585Z,99211.78
2024-03-15T04:47:45.057Z,99213.03
2024-03-15T04:50:12.129Z,99203.13
2024-03-15T04:52:38.940Z,99205.28
2024-03-15T04:55:05.655Z,99191.72
2024-03-15T04:57:32.296Z,99197.47
2024-03-15T04:59:58.776Z,99183.75
2024-03-15T05:02:25.279Z,99181.50
2024-03-15T05:04:52.412Z,99199.28
2024-03-15T05:07:18.946Z,99207.22
2024-03-15T05:09:45.768Z,99206.53
2024-03-15T05:12:14.014Z,99200.50
2024-03-15T05:14:40.840Z,99202.28
2024-03-15T05:17:07.404Z,99210.03
2024-03-15T05:19:38.877Z,99198.81
2024-03-15T05:22:06.410Z,99194.84
2024-03-15T05:24:33.255Z,99209.09
2024-03-15T05:26:59.902Z,99197.00
2024-03-15T05:29:26.601Z,99199.75
2024-03-15T05:31:53.391Z,99195.31
2024-03-15T05:34:19.985Z,99203.81
2024-03-15T05:36:46.655Z,99207.38
2024-03-15T05:39:13.273Z,99208.31
2024-03-15T05:41:42.544Z,99203.03
2024-03-15T05:44:10.818Z,99201.34
2024-03-15T05:46:38.020Z,99214.41
2024-03-15T05:49:04.525Z,99206.63
2024-03-15T05:51:32.294Z,99226.84
2024-03-15T05:53:58.815Z,99222.41
2024-03-15T05:56:25.149Z,99214.41
2024-03-15T05:58:52.607Z,99212.97
2024-03-15T06:01:18.994Z,99218.44
2024-03-15T06:03:45.652Z,99226.47
2024-03-15T06:06:12.803Z,99223.72
2024-03-15T06:08:39.239Z,99215.31
2024-03-15T06:11:08.147Z,99214.19
2024-03-15T06:13:37.174Z,99213.63
2024-03-15T06:16:05.980Z,99210.78
2024-03-15T06:18:34.618Z,99214.97
2024-03-15T06:21:01.324Z,99211.75
2024-03-15T06:23:28.966Z,99210.72
2024-03-15T06:25:55.392Z,99208.63
2024-03-15T06:28:22.003Z,99208.91
2024-03-15T06:30:54.528Z,99215.50
2024-03-15T06:33:22.433Z,99209.22
2024-03-15T06:35:52.205Z,99210.56
2024-03-15T06:38:29.437Z,99208.16
2024-03-15T06:41:11.833Z,99212.38
2024-03-15T06:43:45.064Z,99207.06
2024-03-15T06:46:21.496Z,99206.13
2024-03-15T06:49:03.511Z,99202.91
2024-03-15T06:51:48.665Z,99201.13
2024-03-15T06:54:16.823Z,99191.63
2024-03-15T06:56:43.508Z,99195.09
2024-03-15T06:59:13.496Z,99204.47
2024-03-15T07:01:40.147Z,99196.91
2024-03-15T07:04:09.869Z,99199.25
2024-03-15T07:06:36.868Z,99205.75
2024-03-15T07:09:12.335Z,99201.53
2024-03-15T07:11:38.822Z,99213.34
2024-03-15T07:14:06.139Z,99213.38
2024-03-15T07:16:33.322Z,99205.06
2024-03-15T07:19:00.805Z,99207.97
2024-03-15T07:21:27.550Z,99208.56
2024-03-15T07:23:54.044Z,99207.56
2024-03-15T07:26:20.574Z,99211.97
2024-03-15T07:28:46.984Z,99210.44
2024-03-15T07:31:13.575Z,99206.84
2024-03-15T07:33:40.167Z,99204.78
2024-03-15T07:36:09.801Z,99207.84
2024-03-15T07:38:36.756Z,99200.72
2024-03-15T07:41:03.510Z,99205.47
2024-03-15T07:43:30.039Z,99195.31
2024-03-15T07:45:56.464Z,99202.03
2024-03-15T07:48:23.422Z,99205.78
2024-03-15T07:50:49.862Z,99207.72
2024-03-15T07:53:16.760Z,99209.88
2024-03-15T07:55:43.269Z,99203.00
2024-03-15T07:58:10.178Z,99201.06
2024-03-15T08:00:38.025Z,99201.53
2024-03-15T08:03:04.544Z,99211.00
2024-03-15T08:05:31.195Z,99211.47
2024-03-15T08:07:58.877Z,99212.53
2024-03-15T08:10:25.501Z,99197.03
2024-03-15T08:12:52.152Z,99196.66
2024-03-15T08:15:19.094Z,99194.25
2024-03-15T08:17:50.195Z,99194.53
2024-03-15T08:20:17.352Z,99190.03
2024-03-15T08:22:43.848Z,99191.63
2024-03-15T08:25:10.804Z,99197.19
2024-03-15T08:27:38.454Z,99201.31
2024-03-15T08:30:05.383Z,99191.81
2024-03-15T08:32:32.014Z,99183.09
2024-03-15T08:34:58.566Z,99185.50
2024-03-15T08:37:25.542Z,99187.78
2024-03-15T08:39:52.720Z,99186.22
2024-03-15T08:42:19.567Z,99181.53
2024-03-15T08:44:46.319Z,99191.13
2024-03-15T08:47:13.356Z,99185.41
2024-03-15T08:49:40.074Z,99201.19
2024-03-15T08:52:06.772Z,99202.47
2024-03-15T08:54:35.358Z,99206.66
2024-03-15T08:57:06.127Z,99208.19
2024-03-15T08:59:32.660Z,99217.91
2024-03-15T09:01:59.102Z,99220.38
2024-03-15T09:04:26.045Z,99232.66
2024-03-15T09:06:53.054Z,99239.31
2024-03-15T09:09:22.753Z,99231.13
2024-03-15T09:11:50.754Z,99236.00
2024-03-15T09:14:20.113Z,99230.31
2024-03-15T09:16:48.144Z,99236.25
2024-03-15T09:19:15.301Z,99238.13
2024-03-15T09:21:42.424Z,99243.06
2024-03-15T09:24:14.193Z,99240.03
2024-03-15T09:26:41.468Z,99238.09
2024-03-15T09:29:08.379Z,99241.25
2024-03-15T09:31:52.764Z,99242.50
2024-03-15T09:34:24.024Z,99250.97
2024-03-15T09:36:50.554Z,99244.25
2024-03-15T09:39:17.294Z,99246.13
2024-03-15T09:41:44.024Z,99246.91
2024-03-15T09:44:12.306Z,99245.03
2024-03-15T09:46:39.163Z,99237.78
2024-03-15T09:49:07.074Z,99245.81
2024-03-15T09:51:34.256Z,99246.28
2024-03-15T09:54:03.633Z,99244.13
2024-03-15T09:56:30.887Z,99244.72
2024-03-15T09:58:58.361Z,99242.34
2024-03-15T10:01:25.219Z,99238.63
2024-03-15T10:03:51.721Z,99235.22
2024-03-15T10:06:19.019Z,99236.72
2024-03-15T10:08:45.633Z,99244.66
2024-03-15T10:11:12.124Z,99234.00
2024-03-15T10:13:38.694Z,99243.94
2024-03-15T10:16:09.650Z,99239.38
2024-03-15T10:18:40.132Z,99233.44
2024-03-15T10:21:06.811Z,99234.91
2024-03-15T10:23:33.252Z,99228.13
2024-03-15T10:26:02.026Z,99233.94
2024-03-15T10:28:29.748Z,99232.00
2024-03-15T10:30:59.173Z,99228.09
2024-03-15T10:33:25.656Z,99217.38
2024-03-15T10:35:52.924Z,99223.75
2024-03-15T10:38:19.392Z,99219.22
2024-03-15T10:40:46.961Z,99223.59
2024-03-15T10:43:13.649Z,99217.38
2024-03-15T10:45:49.701Z,99221.63
2024-03-15T10:48:19.307Z,99207.66
2024-03-15T10:50:46.925Z,99212.19
2024-03-15T10:53:17.546Z,99214.56
2024-03-15T10:55:43.997Z,99209.25
2024-03-15T10:58:11.648Z,99212.41
2024-03-15T11:00:38.736Z,99215.97
2024-03-15T11:03:14.827Z,99218.41
2024-03-15T11:05:42.767Z,99216.69
2024-03-15T11:08:10.180Z,99222.06
2024-03-15T11:10:37.393Z,99234.63
2024-03-15T11:13:04.856Z,99242.31
2024-03-15T11:15:38.174Z,99243.03
2024-03-15T11:18:05.560Z,99246.53
2024-03-15T11:20:45.670Z,99242.66
2024-03-15T11:23:16.299Z,99237.56
2024-03-15T11:25:53.446Z,99241.56
2024-03-15T11:28:21.112Z,99245.53
2024-03-15T11:30:47.585Z,99243.81
2024-03-15T11:33:14.065Z,99249.94
2024-03-15T11:35:42.313Z,99233.06
2024-03-15T11:38:15.667Z,99236.28
2024-03-15T11:40:42.485Z,99233.63
2024-03-15T11:43:13.560Z,99228.06
2024-03-15T11:45:42.840Z,99230.63
2024-03-15T11:48:10.812Z,99225.53
2024-03-15T11:50:37.382Z,99228.47
2024-03-15T11:53:05.045Z,99223.00
2024-03-15T11:55:32.331Z,99226.53
2024-03-15T11:57:58.896Z,99227.56
2024-03-15T12:00:25.854Z,99219.53
2024-03-15T12:02:54.158Z,99218.78
2024-03-15T12:05:20.832Z,99226.41
2024-03-15T12:07:47.297Z,99218.72
2024-03-15T12:10:17.138Z,99223.53
2024-03-15T12:12:50.649Z,99221.53
2024-03-15T12:15:28.482Z,99226.69
2024-03-15T12:17:55.909Z,99226.97
2024-03-15T12:20:22.421Z,99214.34
2024-03-15T12:22:48.929Z,99216.59
2024-03-15T12:25:15.258Z,99206.84
2024-03-15T12:27:42.778Z,99210.59
2024-03-15T12:30:11.895Z,99212.63
2024-03-15T12:32:39.909Z,99204.66
2024-03-15T12:35:07.418Z,99205.31
2024-03-15T12:37:35.324Z,99195.94
2024-03-15T12:40:02.014Z,99199.31
2024-03-15T12:42:28.662Z,99199.16
2024-03-15T12:44:55.018Z,99208.16
2024-03-15T12:47:21.574Z,99202.66
2024-03-15T12:49:47.928Z,99199.81
2024-03-15T12:52:14.289Z,99194.13
2024-03-15T12:54:41.578Z,99191.47
2024-03-15T12:57:09.755Z,99178.59
2024-03-15T12:59:36.569Z,99186.31
2024-03-15T13:02:03.432Z,99193.25
2024-03-15T13:04:29.974Z,99192.88
2024-03-15T13:06:56.574Z,99193.28
2024-03-15T13:09:23.134Z,99199.44
2024-03-15T13:11:49.929Z,99200.16
2024-03-15T13:14:16.416Z,99204.31
2024-03-15T13:16:42.754Z,99213.69
2024-03-15T13:19:10.573Z,99209.16
2024-03-15T13:21:37.036Z,99217.50
2024-03-15T13:24:04.864Z,99226.84
2024-03-15T13:26:32.963Z,99228.63
2024-03-15T13:29:00.010Z,99229.38
2024-03-15T13:31:26.989Z,99225.72
2024-03-15T13:33:53.431Z,99231.03
2024-03-15T13:36:20.263Z,99229.22
2024-03-15T13:38:47.923Z,99236.09
2024-03-15T13:41:14.682Z,99231.03
2024-03-15T13:43:42.007Z,99228.25
2024-03-15T13:46:14.063Z,99226.81
2024-03-15T13:48:45.475Z,99226.41
2024-03-15T13:51:13.992Z,99222.63
2024-03-15T13:53:41.623Z,99220.78
2024-03-15T13:56:11.897Z,99219.78
2024-03-15T13:58:38.319Z,99210.63
2024-03-15T14:01:07.350Z,99216.47
2024-03-15T14:03:34.600Z,99208.44
2024-03-15T14:06:04.609Z,99213.16
2024-03-15T14:08:30.984Z,99207.78
2024-03-15T14:10:58.211Z,99206.34
2024-03-15T14:13:24.646Z,99208.41
2024-03-15T14:15:51.971Z,99213.75
2024-03-15T14:18:19.721Z,99202.75
2024-03-15T14:20:47.965Z,99215.97
2024-03-15T14:23:14.700Z,99204.16
2024-03-15T14:25:41.369Z,99206.00
2024-03-15T14:28:08.590Z,99199.53
2024-03-15T14:30:37.253Z,99193.13
2024-03-15T14:33:04.917Z,99190.28
2024-03-15T14:35:31.769Z,99184.00
2024-03-15T14:37:58.256Z,99193.78
2024-03-15T14:40:27.943Z,99183.97
2024-03-15T14:42:55.623Z,99183.75
2024-03-15T14:45:23.242Z,99186.91
2024-03-15T14:47:53.014Z,99191.44
2024-03-15T14:50:19.853Z,99180.44
2024-03-15T14:52:47.138Z,99189.31
2024-03-15T14:55:13.551Z,99184.03
2024-03-15T14:57:41.250Z,99180.56
2024-03-15T15:00:14.072Z,99177.22
2024-03-15T15:02:40.959Z,99177.31
2024-03-15T15:05:08.445Z,99186.25
2024-03-15T15:07:35.132Z,99179.16
2024-03-15T15:10:02.018Z,99187.75
2024-03-15T15:12:28.604Z,99173.59
2024-03-15T15:14:54.990Z,99175.28
2024-03-15T15:17:21.601Z,99171.75
2024-03-15T15:19:48.028Z,99164.78
2024-03-15T15:22:17.555Z,99164.78
2024-03-15T15:24:49.043Z,99152.75
2024-03-15T15:27:15.901Z,99152.00
2024-03-15T15:29:42.697Z,99150.91
2024-03-15T15:32:09.217Z,99158.13
2024-03-15T15:34:35.645Z,99171.41
2024-03-15T15:37:03.330Z,99166.19
2024-03-15T15:39:30.721Z,99153.09
2024-03-15T15:41:57.127Z,99170.25
2024-03-15T15:44:23.582Z,99168.63
2024-03-15T15:46:49.986Z,99160.94
2024-03-15T15:49:16.776Z,99160.25
2024-03-15T15:51:44.308Z,99152.06
2024-03-15T15:54:13.446Z,99151.38
2024-03-15T15:56:40.113Z,99161.00
2024-03-15T15:59:06.926Z,99149.31
2024-03-15T16:01:38.450Z,99153.16
2024-03-15T16:04:05.015Z,99151.44
2024-03-15T16:06:31.443Z,99153.31
2024-03-15T16:08:59.420Z,99160.75
2024-03-15T16:11:25.897Z,99167.78
2024-03-15T16:13:52.571Z,99165.50
2024-03-15T16:16:19.124Z,99169.47
2024-03-15T16:18:45.551Z,99156.78
2024-03-15T16:21:12.142Z,99164.91
2024-03-15T16:23:38.479Z,99178.13
2024-03-15T16:26:05.015Z,99182.25
2024-03-15T16:28:31.417Z,99186.31
2024-03-15T16:30:58.987Z,99184.06
2024-03-15T16:33:26.437Z,99183.16
2024-03-15T16:35:53.131Z,99181.06
2024-03-15T16:38:19.721Z,99180.25
2024-03-15T16:40:49.845Z,99178.13
2024-03-15T16:43:17.143Z,99178.56
2024-03-15T16:45:45.504Z,99167.69
2024-03-15T16:48:11.945Z,99171.13
2024-03-15T16:50:38.823Z,99181.06
2024-03-15T16:53:05.168Z,99178.88
2024-03-15T16:55:34.455Z,99186.94
2024-03-15T16:58:01.309Z,99181.78
2024-03-15T17:00:28.218Z,99177.59
2024-03-15T17:02:54.820Z,99185.00
2024-03-15T17:05:21.279Z,99183.22
2024-03-15T17:07:49.731Z,99193.59
2024-03-15T17:10:16.446Z,99184.56
2024-03-15T17:12:43.620Z,99197.41
2024-03-15T17:15:10.991Z,99195.75
2024-03-15T17:17:38.073Z,99197.41
2024-03-15T17:20:05.275Z,99202.25
2024-03-15T17:22:31.784Z,99185.16
2024-03-15T17:24:58.203Z,99204.78
2024-03-15T17:27:25.716Z,99203.56
2024-03-15T17:29:55.141Z,99209.00
2024-03-15T17:32:24.434Z,99203.88
2024-03-15T17:34:50.934Z,99208.09
2024-03-15T17:37:17.530Z,99207.47
2024-03-15T17:39:45.941Z,99195.19
2024-03-15T17:42:12.527Z,99199.78
2024-03-15T17:44:38.923Z,99196.00
2024-03-15T17:47:05.476Z,99205.75
2024-03-15T17:49:33.256Z,99211.56
2024-03-15T17:51:59.957Z,99210.72
2024-03-15T17:54:27.491Z,99213.97
2024-03-15T17:56:54.152Z,99227.13
2024-03-15T17:59:20.831Z,99229.75
2024-03-15T18:01:48.035Z,99241.84
2024-03-15T18:04:14.653Z,99247.44
2024-03-15T18:06:41.012Z,99275.63
2024-03-15T18:09:13.901Z,99312.94
2024-03-15T18:11:40.515Z,99335.16
2024-03-15T18:14:09.229Z,99336.25
2024-03-15T18:16:35.731Z,99334.22
2024-03-15T18:19:02.341Z,99342.19
2024-03-15T18:21:28.913Z,99334.72
2024-03-15T18:23:57.765Z,99349.41
2024-03-15T18:26:24.205Z,99357.06
2024-03-15T18:28:50.729Z,99350.47
2024-03-15T18:31:17.157Z,99353.72
2024-03-15T18:33:44.057Z,99313.16
2024-03-15T18:36:11.603Z,99300.94
2024-03-15T18:38:38.463Z,99290.94
2024-03-15T18:41:04.873Z,99310.34
2024-03-15T18:43:31.350Z,99316.78
2024-03-15T18:46:01.113Z,99318.53
2024-03-15T18:48:28.144Z,99324.06
2024-03-15T18:50:54.677Z,99325.59
2024-03-15T18:53:21.080Z,99324.09
2024-03-15T18:55:47.695Z,99329.00
2024-03-15T18:58:14.215Z,99344.50
2024-03-15T19:00:40.928Z,99350.13
2024-03-15T19:03:09.468Z,99364.69
2024-03-15T19:05:36.377Z,99358.41
2024-03-15T19:08:02.982Z,99355.66
2024-03-15T19:10:29.568Z,99364.28
2024-03-15T19:12:55.996Z,99364.91
2024-03-15T19:15:28.535Z,99365.13
2024-03-15T19:17:55.079Z,99384.31
2024-03-15T19:20:21.447Z,99387.97
2024-03-15T19:22:47.989Z,99378.94
2024-03-15T19:25:14.760Z,99370.44
2024-03-15T19:27:41.194Z,99375.41
2024-03-15T19:30:10.319Z,99375.28
2024-03-15T19:32:36.733Z,99381.94
2024-03-15T19:35:03.858Z,99377.81
2024-03-15T19:37:30.221Z,99361.03
2024-03-15T19:39:56.713Z,99367.78
2024-03-15T19:42:26.098Z,99361.22
2024-03-15T19:44:52.654Z,99370.00
2024-03-15T19:47:19.181Z,99364.13
2024-03-15T19:49:45.627Z,99364.53
2024-03-15T19:52:12.540Z,99364.53
2024-03-15T19:54:39.099Z,99361.34
2024-03-15T19:57:05.552Z,99375.34
2024-03-15T19:59:35.124Z,99373.63
2024-03-15T20:02:03.694Z,99372.16
2024-03-15T20:04:31.687Z,99376.91
2024-03-15T20:06:59.051Z,99379.44
2024-03-15T20:09:25.829Z,99373.38
2024-03-15T20:11:53.136Z,99380.97
2024-03-15T20:14:20.883Z,99385.22
2024-03-15T20:16:50.951Z,99378.25
2024-03-15T20:19:30.492Z,99377.38
2024-03-15T20:21:57.086Z,99373.88
2024-03-15T20:24:24.435Z,99374.84
2024-03-15T20:26:50.870Z,99376.75
2024-03-15T20:29:17.819Z,99374.84
2024-03-15T20:31:44.817Z,99373.31
2024-03-15T20:34:11.348Z,99366.53
2024-03-15T20:36:39.035Z,99372.50
2024-03-15T20:39:06.490Z,99366.34
2024-03-15T20:41:32.889Z,99369.84
2024-03-15T20:43:59.556Z,99372.56
2024-03-15T20:46:26.508Z,99372.56
2024-03-15T20:48:53.369Z,99371.63
2024-03-15T20:51:21.699Z,99376.94
2024-03-15T20:53:52.619Z,99376.28
2024-03-15T20:56:20.380Z,99383.94
2024-03-15T20:58:48.300Z,99385.66
2024-03-15T21:01:15.331Z,99390.75
2024-03-15T21:03:42.428Z,99388.41
2024-03-15T21:06:09.198Z,99384.97
2024-03-15T21:08:36.409Z,99378.19
2024-03-15T21:11:02.891Z,99372.03
2024-03-15T21:13:29.518Z,99380.38
2024-03-15T21:15:56.915Z,99377.53
2024-03-15T21:18:26.275Z,99383.78
2024-03-15T21:20:55.646Z,99382.84
2024-03-15T21:23:22.356Z,99385.38
2024-03-15T21:25:50.451Z,99384.97
2024-03-15T21:28:17.217Z,99384.97
2024-03-15T21:30:43.787Z,99387.56
2024-03-15T21:33:10.683Z,99377.13
2024-03-15T21:35:37.986Z,99375.63
2024-03-15T21:38:07.130Z,99374.66
2024-03-15T21:40:35.747Z,99369.53
2024-03-15T21:43:02.667Z,99363.50
2024-03-15T21:45:29.694Z,99377.53
2024-03-15T21:48:00.262Z,99368.44
2024-03-15T21:50:27.922Z,99371.84
2024-03-15T21:52:54.393Z,99367.56
2024-03-15T21:55:22.437Z,99367.69
2024-03-15T21:57:50.714Z,99371.47
2024-03-15T22:00:19.442Z,99376.00
2024-03-15T22:02:49.340Z,99373.78
2024-03-15T22:05:15.760Z,99373.97
2024-03-15T22:07:42.502Z,99370.00
2024-03-15T22:10:08.904Z,99359.59
2024-03-15T22:12:35.520Z,99366.78
2024-03-15T22:15:01.936Z,99374.63
2024-03-15T22:17:28.494Z,99382.56
2024-03-15T22:19:54.999Z,99376.97
2024-03-15T22:22:25.304Z,99381.75
2024-03-15T22:24:55.668Z,99387.97
2024-03-15T22:27:24.611Z,99391.78
2024-03-15T22:29:52.221Z,99398.09
2024-03-15T22:32:19.395Z,99392.13
2024-03-15T22:34:45.950Z,99395.91
2024-03-15T22:37:12.446Z,99401.22
2024-03-15T22:39:38.897Z,99402.53
2024-03-15T22:42:05.435Z,99393.56
2024-03-15T22:44:32.314Z,99400.63
2024-03-15T22:46:58.789Z,99396.25
2024-03-15T22:49:25.404Z,99396.03
2024-03-15T22:51:51.986Z,99406.72
2024-03-15T22:54:21.096Z,99409.34
2024-03-15T22:56:47.637Z,99404.91
2024-03-15T22:59:14.178Z,99408.31
2024-03-15T23:01:40.587Z,99413.81
2024-03-15T23:04:10.153Z,99413.72
2024-03-15T23:06:36.721Z,99409.19
2024-03-15T23:09:05.885Z,99412.97
2024-03-15T23:11:35.017Z,99403.88
2024-03-15T23:14:01.613Z,99402.44
2024-03-15T23:16:28.394Z,99401.13
2024-03-15T23:18:54.964Z,99418.56
2024-03-15T23:21:22.359Z,99412.88
2024-03-15T23:23:51.917Z,99414.16
2024-03-15T23:26:18.455Z,99421.19
2024-03-15T23:28:45.514Z,99418.84
2024-03-15T23:31:16.023Z,99412.22
2024-03-15T23:33:42.446Z,99414.28
2024-03-15T23:36:09.038Z,99423.94
2024-03-15T23:38:35.395Z,99416.72
2024-03-15T23:41:02.265Z,99421.94
2024-03-15T23:43:30.660Z,99424.38
2024-03-15T23:45:59.987Z,99423.97
2024-03-15T23:48:30.211Z,99421.88
2024-03-15T23:50:56.694Z,99412.53
2024-03-15T23:53:23.991Z,99418.00
2024-03-15T23:55:50.581Z,99424.63
2024-03-15T23:58:17.134Z,99425.00
